createdAt,value
2022-10-11T00:01:57.582Z,16.76
2022-10-11T00:04:23.526Z,16.88
2022-10-11T00:06:49.447Z,16.79
2022-10-11T00:09:15.350Z,16.59
2022-10-11T00:11:41.259Z,16.55
2022-10-11T00:14:07.181Z,16.63
2022-10-11T00:16:33.082Z,16.42
2022-10-11T00:18:59.001Z,16.19
2022-10-11T00:21:24.934Z,16.39
2022-10-11T00:23:50.830Z,16.52
2022-10-11T00:26:16.772Z,16.42
2022-10-11T00:28:42.752Z,16.60
2022-10-11T00:31:08.979Z,16.67
2022-10-11T00:33:35.098Z,16.67
2022-10-11T00:36:01.088Z,16.68
2022-10-11T00:38:27.058Z,16.73
2022-10-11T00:40:52.945Z,16.75
2022-10-11T00:43:18.859Z,16.76
2022-10-11T00:45:44.789Z,16.50
2022-10-11T00:48:10.704Z,16.44
2022-10-11T00:50:36.616Z,16.41
2022-10-11T00:53:02.535Z,16.36
2022-10-11T00:55:28.496Z,16.42
2022-10-11T00:57:54.778Z,16.44
2022-10-11T01:00:20.731Z,16.45
2022-10-11T01:02:46.630Z,16.60
2022-10-11T01:05:28.767Z,16.39
2022-10-11T01:07:55.769Z,16.56
2022-10-11T01:10:21.717Z,16.71
2022-10-11T01:12:47.663Z,16.75
2022-10-11T01:15:13.612Z,16.74
2022-10-11T01:17:39.527Z,16.58
2022-10-11T01:20:05.730Z,16.70
2022-10-11T01:22:31.951Z,16.78
2022-10-11T01:24:58.164Z,16.86
2022-10-11T01:27:24.362Z,16.93
2022-10-11T01:29:50.561Z,16.98
2022-10-11T01:32:16.609Z,16.91
2022-10-11T03:35:47.671Z,17.17
2022-10-11T03:38:13.602Z,17.17
2022-10-11T03:40:39.517Z,17.33
2022-10-11T03:43:05.409Z,17.37
2022-10-11T03:45:31.346Z,17.50
2022-10-11T03:47:57.271Z,17.53
2022-10-11T03:50:23.170Z,17.57
2022-10-11T03:52:49.116Z,17.55
2022-10-11T03:55:15.070Z,17.62
2022-10-11T04:30:44.624Z,17.09
2022-10-11T04:33:10.636Z,17.46
2022-10-11T04:35:36.557Z,17.53
2022-10-11T04:38:02.458Z,17.44
2022-10-11T04:40:28.395Z,17.40
2022-10-11T04:42:54.326Z,17.42
2022-10-11T04:45:20.238Z,17.29
2022-10-11T04:47:46.177Z,17.42
2022-10-11T04:50:12.108Z,17.51
2022-10-11T04:52:38.016Z,17.62
2022-10-11T04:55:04.349Z,17.45
2022-10-11T04:57:30.942Z,17.59
2022-10-11T04:59:56.870Z,17.52
2022-10-11T05:02:22.793Z,17.56
2022-10-11T05:04:48.711Z,17.67
2022-10-11T05:07:14.647Z,17.54
2022-10-11T05:09:40.547Z,17.35
2022-10-11T05:12:06.462Z,17.34
2022-10-11T05:14:32.374Z,17.55
2022-10-11T05:16:58.282Z,17.44
2022-10-11T05:19:24.207Z,17.49
2022-10-11T05:21:50.143Z,17.69
2022-10-11T05:24:16.116Z,17.69
2022-10-11T05:26:42.034Z,17.76
2022-10-11T05:29:07.954Z,17.69
2022-10-11T05:31:33.861Z,17.74
2022-10-11T05:33:59.786Z,17.72
2022-10-11T05:36:25.704Z,17.80
2022-10-11T05:38:51.604Z,17.77
2022-10-11T05:41:17.518Z,17.81
2022-10-11T05:43:43.409Z,17.89
2022-10-11T05:46:09.460Z,18.02
2022-10-11T05:48:35.567Z,17.90
2022-10-11T05:51:01.499Z,17.97
2022-10-11T05:53:27.522Z,17.99
2022-10-11T05:55:53.435Z,18.13
2022-10-11T05:58:19.389Z,18.00
2022-10-11T06:00:45.290Z,18.03
2022-10-11T06:03:11.232Z,18.02
2022-10-11T06:05:37.124Z,18.01
2022-10-11T06:08:03.039Z,18.12
2022-10-11T06:10:29.068Z,18.25
2022-10-11T06:12:55.227Z,18.28
2022-10-11T06:15:21.151Z,18.36
2022-10-11T06:17:47.046Z,18.32
2022-10-11T06:20:12.970Z,18.30
2022-10-11T06:22:39.468Z,18.40
2022-10-11T06:25:05.417Z,18.44
2022-10-11T06:27:34.676Z,18.45
2022-10-11T06:30:00.592Z,18.48
2022-10-11T06:32:26.521Z,18.54
2022-10-11T06:34:52.444Z,18.58
2022-10-11T06:37:19.118Z,18.51
2022-10-11T06:39:45.298Z,18.58
2022-10-11T06:42:11.500Z,18.62
2022-10-11T06:47:18.255Z,18.52
2022-10-11T06:49:44.296Z,18.54
2022-10-11T06:52:10.322Z,18.64
2022-10-11T08:53:25.466Z,21.25
2022-10-11T08:55:51.439Z,21.52
2022-10-11T08:58:17.377Z,21.75
2022-10-11T09:00:43.286Z,21.90
2022-10-11T09:03:09.901Z,21.94
2022-10-11T09:05:36.041Z,22.04
2022-10-11T09:08:02.120Z,21.69
2022-10-11T09:10:28.046Z,22.05
2022-10-11T09:12:53.953Z,22.45
2022-10-11T09:15:19.865Z,22.80
2022-10-11T09:17:45.776Z,22.86
2022-10-11T09:20:11.731Z,22.56
2022-10-11T09:22:37.634Z,22.70
2022-10-11T09:25:03.546Z,23.00
2022-10-11T09:27:50.331Z,23.06
2022-10-11T09:30:15.369Z,23.22
2022-10-11T09:32:41.286Z,23.61
2022-10-11T09:35:07.182Z,23.08
2022-10-11T09:37:33.105Z,22.73
2022-10-11T09:39:59.012Z,22.80
2022-10-11T09:42:24.955Z,22.33
2022-10-11T09:44:50.849Z,21.95
2022-10-11T09:47:16.807Z,22.01
2022-10-11T09:49:42.738Z,22.66
2022-10-11T09:52:08.638Z,22.61
2022-10-11T09:54:34.555Z,22.46
2022-10-11T09:57:00.467Z,22.95
2022-10-11T09:59:26.408Z,23.50
2022-10-11T10:01:52.323Z,23.47
2022-10-11T10:04:18.276Z,23.37
2022-10-11T10:06:44.205Z,23.17
2022-10-11T10:09:10.103Z,22.73
2022-10-11T10:11:36.043Z,23.41
2022-10-11T10:14:01.956Z,23.33
2022-10-11T10:16:27.898Z,23.63
2022-10-11T10:18:53.819Z,23.56
2022-10-11T10:21:19.754Z,23.49
2022-10-11T10:23:45.686Z,23.73
2022-10-11T10:26:11.576Z,23.47
2022-10-11T10:28:37.574Z,22.97
2022-10-11T10:31:03.571Z,22.82
2022-10-11T10:33:29.483Z,23.23
2022-10-11T10:35:55.406Z,23.65
2022-10-11T10:38:26.188Z,23.86
2022-10-11T10:40:52.562Z,24.04
2022-10-11T10:43:18.463Z,23.97
2022-10-11T10:45:44.382Z,24.33
2022-10-11T10:48:10.286Z,23.57
2022-10-11T10:50:36.182Z,23.88
2022-10-11T10:53:02.109Z,24.87
2022-10-11T10:55:28.070Z,25.48
2022-10-11T10:57:54.326Z,24.65
2022-10-11T11:00:20.266Z,24.67
2022-10-11T11:02:46.189Z,25.05
2022-10-11T11:05:12.185Z,25.34
2022-10-11T11:07:38.085Z,25.44
2022-10-11T11:10:04.014Z,25.72
2022-10-11T11:12:29.938Z,25.38
2022-10-11T11:14:55.884Z,25.72
2022-10-11T11:17:21.827Z,25.79
2022-10-11T11:19:47.761Z,25.79
2022-10-11T11:22:13.698Z,25.45
2022-10-11T11:24:39.599Z,25.86
2022-10-11T11:27:05.524Z,26.41
2022-10-11T11:29:31.836Z,26.55
2022-10-11T11:31:57.744Z,25.67
2022-10-11T11:34:23.942Z,25.49
2022-10-11T11:36:50.723Z,25.31
2022-10-11T13:49:37.998Z,27.69
2022-10-11T13:52:04.484Z,27.89
2022-10-11T13:54:31.334Z,28.32
2022-10-11T13:56:57.778Z,28.11
2022-10-11T13:59:24.539Z,28.27
2022-10-11T14:01:51.426Z,27.65
2022-10-11T14:04:17.393Z,26.34
2022-10-11T14:06:43.392Z,26.18
2022-10-11T14:09:09.302Z,26.15
2022-10-11T14:11:35.281Z,25.89
2022-10-11T14:14:01.535Z,26.33
2022-10-11T14:16:27.461Z,27.06
2022-10-11T14:18:53.378Z,27.43
2022-10-11T14:21:19.343Z,26.14
2022-10-11T14:23:45.820Z,25.80
2022-10-11T14:26:16.321Z,26.06
2022-10-11T14:28:44.475Z,25.81
2022-10-11T14:31:12.827Z,25.36
2022-10-11T14:33:39.702Z,25.20
2022-10-11T14:36:05.851Z,24.51
2022-10-11T14:38:31.894Z,24.33
2022-10-11T14:40:57.957Z,24.53
2022-10-11T14:43:24.086Z,25.37
2022-10-11T14:45:50.009Z,25.39
2022-10-11T14:48:26.638Z,24.75
2022-10-11T14:51:01.817Z,25.12
2022-10-11T14:53:28.512Z,24.84
2022-10-11T14:55:54.434Z,25.24
2022-10-11T14:58:20.410Z,25.37
2022-10-11T15:00:46.314Z,25.39
2022-10-11T15:03:12.271Z,25.55
2022-10-11T15:05:38.771Z,25.35
2022-10-11T15:08:04.739Z,25.55
2022-10-11T15:10:30.675Z,25.52
2022-10-11T15:12:57.329Z,25.76
2022-10-11T15:15:23.245Z,25.35
2022-10-11T15:17:49.182Z,24.55
2022-10-11T15:20:15.956Z,24.05
2022-10-11T15:22:41.877Z,24.23
2022-10-11T15:25:07.779Z,24.69
2022-10-11T15:27:33.693Z,24.50
2022-10-11T15:29:59.635Z,24.54
2022-10-11T15:32:25.565Z,24.76
2022-10-11T15:34:51.486Z,24.70
2022-10-11T15:37:20.344Z,24.49
2022-10-11T15:39:46.322Z,24.26
2022-10-11T15:42:12.422Z,23.72
2022-10-11T15:44:39.115Z,23.94
2022-10-11T15:47:05.082Z,24.20
2022-10-11T15:49:30.999Z,24.39
2022-10-11T15:51:57.766Z,24.60
2022-10-11T15:54:23.712Z,24.64
2022-10-11T15:56:49.653Z,24.76
2022-10-11T15:59:15.555Z,24.84
2022-10-11T16:01:41.484Z,24.77
2022-10-11T16:04:07.458Z,24.72
2022-10-11T16:06:33.361Z,24.65
2022-10-11T16:08:59.607Z,24.42
2022-10-11T16:11:25.558Z,24.31
2022-10-11T16:13:51.442Z,24.34
2022-10-11T16:16:17.380Z,24.15
2022-10-11T16:18:43.395Z,24.18
2022-10-11T16:21:09.905Z,23.95
2022-10-11T16:23:36.186Z,24.17
2022-10-11T16:26:04.184Z,24.29
2022-10-11T16:28:30.626Z,24.37
2022-10-11T16:30:56.879Z,24.29
2022-10-11T16:33:24.498Z,24.23
2022-10-11T16:35:50.737Z,24.07
2022-10-11T16:38:18.047Z,23.86
2022-10-11T18:46:42.141Z,22.13
2022-10-11T18:49:08.085Z,22.20
2022-10-11T18:51:34.677Z,22.21
2022-10-11T18:54:00.595Z,22.26
2022-10-11T18:56:26.502Z,22.33
2022-10-11T18:58:52.437Z,22.40
2022-10-11T19:01:18.412Z,22.22
2022-10-11T19:03:44.469Z,22.05
2022-10-11T19:06:10.413Z,21.87
2022-10-11T19:08:36.355Z,21.90
2022-10-11T19:11:02.282Z,21.84
2022-10-11T19:13:28.209Z,21.79
2022-10-11T19:15:54.110Z,21.80
2022-10-11T19:18:20.903Z,21.80
2022-10-11T19:20:47.558Z,21.79
2022-10-11T19:23:13.492Z,21.75
2022-10-11T19:25:39.450Z,21.84
2022-10-11T19:28:05.353Z,21.93
2022-10-11T19:30:32.009Z,21.88
2022-10-11T19:32:57.917Z,21.86
2022-10-11T19:35:24.636Z,21.80
2022-10-11T19:37:50.623Z,21.83
2022-10-11T19:40:16.565Z,21.85
2022-10-11T19:42:42.497Z,21.87
2022-10-11T19:45:11.166Z,21.84
2022-10-11T19:47:40.119Z,21.77
2022-10-11T19:50:06.131Z,21.81
2022-10-11T19:52:32.274Z,21.73
2022-10-11T19:54:58.396Z,21.75
2022-10-11T19:57:24.319Z,21.80
2022-10-11T19:59:50.267Z,21.87
2022-10-11T20:02:16.182Z,21.90
2022-10-11T20:04:57.495Z,22.00
2022-10-11T20:07:23.502Z,22.03
2022-10-11T20:09:49.424Z,21.90
2022-10-11T20:12:16.233Z,21.81
2022-10-11T20:14:42.181Z,21.54
2022-10-11T20:17:08.114Z,21.59
2022-10-11T20:19:34.004Z,21.68
2022-10-11T20:21:59.919Z,21.77
2022-10-11T20:24:25.858Z,21.81
2022-10-11T20:26:51.796Z,21.85
2022-10-11T20:29:18.525Z,21.87
2022-10-11T20:31:44.475Z,21.78
2022-10-11T20:34:10.841Z,21.77
2022-10-11T20:36:37.360Z,21.69
2022-10-11T20:39:03.308Z,21.70
2022-10-11T20:41:29.253Z,21.67
2022-10-11T20:43:55.906Z,21.64
2022-10-11T20:46:21.875Z,21.60
2022-10-11T20:48:47.899Z,21.59
2022-10-11T20:51:13.816Z,21.53
2022-10-11T20:53:40.171Z,21.53
2022-10-11T20:56:06.133Z,21.56
2022-10-11T20:58:32.097Z,21.61
2022-10-11T21:00:58.361Z,21.59
2022-10-11T21:03:24.326Z,21.57
2022-10-11T21:05:50.251Z,21.59
2022-10-11T21:08:16.206Z,21.64
2022-10-11T21:10:42.126Z,21.67
2022-10-11T21:13:08.400Z,21.65
2022-10-11T21:15:35.188Z,21.64
2022-10-11T21:18:01.078Z,21.58
2022-10-11T21:20:27.326Z,21.61
2022-10-11T21:22:53.582Z,21.64
2022-10-11T21:25:19.797Z,21.41
2022-10-11T21:27:46.787Z,21.40
2022-10-11T21:30:14.204Z,21.39
2022-10-11T21:32:40.503Z,21.43
2022-10-11T21:35:06.709Z,21.47
2022-10-11T23:33:50.320Z,20.77
2022-10-11T23:36:16.243Z,20.77
2022-10-11T23:38:42.157Z,20.63
2022-10-11T23:41:08.096Z,20.59
2022-10-11T23:43:34.546Z,20.46
2022-10-11T23:46:00.488Z,20.51
2022-10-11T23:48:26.411Z,20.51
2022-10-11T23:50:52.320Z,20.51
2022-10-11T23:53:18.253Z,20.51
2022-10-11T23:55:44.958Z,20.53
2022-10-11T23:58:10.905Z,20.55
